Belvedere, United Kingdom
Current Conditions -  °F | °C
As of 8:50 PM on Sunday 23 Nov 2014 (Local Time) from EGLC Reporting Station
Clear Clear  
Wind Chill: 44°   Ceiling: Unl
Heat Index: 46°   Visibility: 6mi
Dew Point: 43°   Wind: 6mph
Humidity: 87%   Direction: 310°NW
Pressure: 30.12"   Gusts: NA
Location:  51.49°N, 0.15°E
Report Text: EGLC 232050Z 31005KT CAVOK 08/06 Q1020
Loading
Personal Weather Stations






























Interactive Weather Map New forecast layout! Learn more

10-Day Weather Forecast

Advertisements
Track Severe Weather on mobile